sensor_id;sensor_type;location;lat;lon;timestamp;temperature;humidity
666;DHT22;315;48.738;9.126;2023-04-24T00:00:35;10.90;99.90
666;DHT22;315;48.738;9.126;2023-04-24T00:03:01;10.90;99.90
666;DHT22;315;48.738;9.126;2023-04-24T00:05:28;10.90;99.90
666;DHT22;315;48.738;9.126;2023-04-24T00:07:53;10.90;99.90
666;DHT22;315;48.738;9.126;2023-04-24T00:10:20;11.00;99.90
666;DHT22;315;48.738;9.126;2023-04-24T00:12:46;11.00;99.90
666;DHT22;315;48.738;9.126;2023-04-24T00:15:11;10.90;99.90
666;DHT22;315;48.738;9.126;2023-04-24T00:17:37;10.90;99.90
666;DHT22;315;48.738;9.126;2023-04-24T00:20:04;10.90;99.90
666;DHT22;315;48.738;9.126;2023-04-24T00:22:30;10.90;99.90
666;DHT22;315;48.738;9.126;2023-04-24T00:24:56;11.00;99.90
666;DHT22;315;48.738;9.126;2023-04-24T00:27:22;11.00;99.90
666;DHT22;315;48.738;9.126;2023-04-24T00:29:47;11.00;99.90
666;DHT22;315;48.738;9.126;2023-04-24T00:32:13;11.00;99.90
666;DHT22;315;48.738;9.126;2023-04-24T00:34:39;11.00;99.90
666;DHT22;315;48.738;9.126;2023-04-24T00:37:05;11.00;99.90
666;DHT22;315;48.738;9.126;2023-04-24T00:39:31;11.00;99.90
666;DHT22;315;48.738;9.126;2023-04-24T00:41:57;11.10;99.90
666;DHT22;315;48.738;9.126;2023-04-24T00:44:22;11.10;99.90
666;DHT22;315;48.738;9.126;2023-04-24T00:46:49;11.10;99.90
666;DHT22;315;48.738;9.126;2023-04-24T00:49:20;11.10;99.90
666;DHT22;315;48.738;9.126;2023-04-24T00:51:46;11.10;99.90
666;DHT22;315;48.738;9.126;2023-04-24T00:54:15;11.10;99.90
666;DHT22;315;48.738;9.126;2023-04-24T00:56:41;11.10;99.90
666;DHT22;315;48.738;9.126;2023-04-24T00:59:08;11.10;99.90
666;DHT22;315;48.738;9.126;2023-04-24T01:01:33;11.10;99.90
666;DHT22;315;48.738;9.126;2023-04-24T01:04:00;11.10;99.90
666;DHT22;315;48.738;9.126;2023-04-24T01:06:29;11.10;99.90
666;DHT22;315;48.738;9.126;2023-04-24T01:08:57;11.10;99.90
666;DHT22;315;48.738;9.126;2023-04-24T01:11:24;11.20;99.90
666;DHT22;315;48.738;9.126;2023-04-24T01:13:50;11.20;99.90
666;DHT22;315;48.738;9.126;2023-04-24T01:16:16;11.20;99.90
666;DHT22;315;48.738;9.126;2023-04-24T01:18:43;11.10;99.90
666;DHT22;315;48.738;9.126;2023-04-24T01:21:09;11.10;99.90
666;DHT22;315;48.738;9.126;2023-04-24T01:23:36;11.10;99.90
666;DHT22;315;48.738;9.126;2023-04-24T01:26:02;11.10;99.90
666;DHT22;315;48.738;9.126;2023-04-24T01:28:27;11.10;99.90
666;DHT22;315;48.738;9.126;2023-04-24T01:30:53;11.10;99.90
666;DHT22;315;48.738;9.126;2023-04-24T01:33:21;11.00;99.90
666;DHT22;315;48.738;9.126;2023-04-24T01:35:47;10.90;99.90
666;DHT22;315;48.738;9.126;2023-04-24T01:38:13;10.90;99.90
666;DHT22;315;48.738;9.126;2023-04-24T01:40:39;10.80;99.90
666;DHT22;315;48.738;9.126;2023-04-24T01:43:04;10.80;99.90
666;DHT22;315;48.738;9.126;2023-04-24T01:45:30;10.80;99.90
666;DHT22;315;48.738;9.126;2023-04-24T01:47:56;10.80;99.90
666;DHT22;315;48.738;9.126;2023-04-24T01:50:22;10.80;99.90
666;DHT22;315;48.738;9.126;2023-04-24T01:52:47;10.80;99.90
666;DHT22;315;48.738;9.126;2023-04-24T01:55:13;10.80;99.90
666;DHT22;315;48.738;9.126;2023-04-24T01:57:39;10.70;99.90
666;DHT22;315;48.738;9.126;2023-04-24T02:00:05;10.70;99.90
666;DHT22;315;48.738;9.126;2023-04-24T02:02:32;10.70;99.90
666;DHT22;315;48.738;9.126;2023-04-24T02:04:57;10.70;99.90
666;DHT22;315;48.738;9.126;2023-04-24T02:07:23;10.70;99.90
666;DHT22;315;48.738;9.126;2023-04-24T02:09:48;10.70;99.90
666;DHT22;315;48.738;9.126;2023-04-24T02:12:17;10.70;99.90
666;DHT22;315;48.738;9.126;2023-04-24T02:14:43;10.70;99.90
666;DHT22;315;48.738;9.126;2023-04-24T02:17:09;10.60;99.90
666;DHT22;315;48.738;9.126;2023-04-24T02:19:34;10.50;99.90
666;DHT22;315;48.738;9.126;2023-04-24T02:22:00;10.50;99.90
666;DHT22;315;48.738;9.126;2023-04-24T02:24:25;10.40;99.90
666;DHT22;315;48.738;9.126;2023-04-24T02:26:51;10.40;99.90
666;DHT22;315;48.738;9.126;2023-04-24T02:29:16;10.40;99.90
666;DHT22;315;48.738;9.126;2023-04-24T02:31:42;10.40;99.90
666;DHT22;315;48.738;9.126;2023-04-24T02:34:07;10.40;99.90
666;DHT22;315;48.738;9.126;2023-04-24T02:36:33;10.40;99.90
666;DHT22;315;48.738;9.126;2023-04-24T02:38:58;10.40;99.90
666;DHT22;315;48.738;9.126;2023-04-24T02:41:24;10.40;99.90
666;DHT22;315;48.738;9.126;2023-04-24T02:43:49;10.40;99.90
666;DHT22;315;48.738;9.126;2023-04-24T02:46:15;10.40;99.90
666;DHT22;315;48.738;9.126;2023-04-24T02:48:41;10.40;99.90
666;DHT22;315;48.738;9.126;2023-04-24T02:51:06;10.40;99.90
666;DHT22;315;48.738;9.126;2023-04-24T02:53:32;10.40;99.90
666;DHT22;315;48.738;9.126;2023-04-24T02:55:57;10.30;99.90
666;DHT22;315;48.738;9.126;2023-04-24T02:58:23;10.30;99.90
666;DHT22;315;48.738;9.126;2023-04-24T03:00:48;10.30;99.90
666;DHT22;315;48.738;9.126;2023-04-24T03:03:14;10.20;99.90
666;DHT22;315;48.738;9.126;2023-04-24T03:05:40;10.20;99.90
666;DHT22;315;48.738;9.126;2023-04-24T03:08:06;10.20;99.90
666;DHT22;315;48.738;9.126;2023-04-24T03:10:31;10.20;99.90
666;DHT22;315;48.738;9.126;2023-04-24T03:12:57;10.10;99.90
666;DHT22;315;48.738;9.126;2023-04-24T03:15:23;10.10;99.90
666;DHT22;315;48.738;9.126;2023-04-24T03:17:48;10.00;99.90
666;DHT22;315;48.738;9.126;2023-04-24T03:20:14;10.00;99.90
666;DHT22;315;48.738;9.126;2023-04-24T03:22:39;9.90;99.90
666;DHT22;315;48.738;9.126;2023-04-24T03:25:05;9.90;99.90
666;DHT22;315;48.738;9.126;2023-04-24T03:27:31;9.90;99.90
666;DHT22;315;48.738;9.126;2023-04-24T03:29:57;9.80;99.90
666;DHT22;315;48.738;9.126;2023-04-24T03:32:22;9.80;99.90
666;DHT22;315;48.738;9.126;2023-04-24T03:34:48;9.80;99.90
666;DHT22;315;48.738;9.126;2023-04-24T03:37:15;9.80;99.90
666;DHT22;315;48.738;9.126;2023-04-24T03:39:40;9.90;99.90
666;DHT22;315;48.738;9.126;2023-04-24T03:42:06;9.90;99.90
666;DHT22;315;48.738;9.126;2023-04-24T03:44:31;9.80;99.90
666;DHT22;315;48.738;9.126;2023-04-24T03:46:58;9.90;99.90
666;DHT22;315;48.738;9.126;2023-04-24T03:49:23;9.80;99.90
666;DHT22;315;48.738;9.126;2023-04-24T03:51:49;9.80;99.90
666;DHT22;315;48.738;9.126;2023-04-24T03:54:14;9.80;99.90
666;DHT22;315;48.738;9.126;2023-04-24T03:56:40;9.80;99.90
666;DHT22;315;48.738;9.126;2023-04-24T03:59:05;9.70;99.90
666;DHT22;315;48.738;9.126;2023-04-24T04:01:31;9.70;99.90
666;DHT22;315;48.738;9.126;2023-04-24T04:03:56;9.70;99.90
666;DHT22;315;48.738;9.126;2023-04-24T04:06:22;9.70;99.90
666;DHT22;315;48.738;9.126;2023-04-24T04:08:47;9.60;99.90
666;DHT22;315;48.738;9.126;2023-04-24T04:11:13;9.60;99.90
666;DHT22;315;48.738;9.126;2023-04-24T04:13:39;9.70;99.90
666;DHT22;315;48.738;9.126;2023-04-24T04:16:04;9.70;99.90
666;DHT22;315;48.738;9.126;2023-04-24T04:18:30;9.70;99.90
666;DHT22;315;48.738;9.126;2023-04-24T04:20:56;9.80;99.90
666;DHT22;315;48.738;9.126;2023-04-24T04:23:22;9.80;99.90
666;DHT22;315;48.738;9.126;2023-04-24T04:25:48;9.90;99.90
666;DHT22;315;48.738;9.126;2023-04-24T04:28:13;9.90;99.90
666;DHT22;315;48.738;9.126;2023-04-24T04:30:39;9.90;99.90
666;DHT22;315;48.738;9.126;2023-04-24T04:33:05;9.80;99.90
666;DHT22;315;48.738;9.126;2023-04-24T04:35:30;9.70;99.90
666;DHT22;315;48.738;9.126;2023-04-24T04:37:56;9.60;99.90
666;DHT22;315;48.738;9.126;2023-04-24T04:40:24;9.50;99.90
666;DHT22;315;48.738;9.126;2023-04-24T04:42:50;9.40;99.90
666;DHT22;315;48.738;9.126;2023-04-24T04:45:18;9.30;99.90
666;DHT22;315;48.738;9.126;2023-04-24T04:47:43;9.20;99.90
666;DHT22;315;48.738;9.126;2023-04-24T04:50:10;9.20;99.90
666;DHT22;315;48.738;9.126;2023-04-24T04:52:35;9.20;99.90
666;DHT22;315;48.738;9.126;2023-04-24T04:55:01;9.20;99.90
666;DHT22;315;48.738;9.126;2023-04-24T04:57:27;9.20;99.90
666;DHT22;315;48.738;9.126;2023-04-24T04:59:52;9.20;99.90
666;DHT22;315;48.738;9.126;2023-04-24T05:02:18;9.20;99.90
666;DHT22;315;48.738;9.126;2023-04-24T05:04:44;9.20;99.90
666;DHT22;315;48.738;9.126;2023-04-24T05:07:10;9.20;99.90
666;DHT22;315;48.738;9.126;2023-04-24T05:09:36;9.10;99.90
666;DHT22;315;48.738;9.126;2023-04-24T05:12:02;9.20;99.90
666;DHT22;315;48.738;9.126;2023-04-24T05:14:28;9.20;99.90
666;DHT22;315;48.738;9.126;2023-04-24T05:16:53;9.20;99.90
666;DHT22;315;48.738;9.126;2023-04-24T05:19:19;9.30;99.90
666;DHT22;315;48.738;9.126;2023-04-24T05:21:44;9.20;99.90
666;DHT22;315;48.738;9.126;2023-04-24T05:24:10;9.20;99.90
666;DHT22;315;48.738;9.126;2023-04-24T05:26:36;9.20;99.90
666;DHT22;315;48.738;9.126;2023-04-24T05:29:02;9.20;99.90
666;DHT22;315;48.738;9.126;2023-04-24T05:31:27;9.20;99.90
666;DHT22;315;48.738;9.126;2023-04-24T05:33:53;9.20;99.90
666;DHT22;315;48.738;9.126;2023-04-24T05:36:18;9.30;99.90
666;DHT22;315;48.738;9.126;2023-04-24T05:38:44;9.30;99.90
666;DHT22;315;48.738;9.126;2023-04-24T05:41:10;9.30;99.90
666;DHT22;315;48.738;9.126;2023-04-24T05:43:35;9.40;99.90
666;DHT22;315;48.738;9.126;2023-04-24T05:46:01;9.40;99.90
666;DHT22;315;48.738;9.126;2023-04-24T05:48:26;9.40;99.90
666;DHT22;315;48.738;9.126;2023-04-24T05:50:52;9.50;99.90
666;DHT22;315;48.738;9.126;2023-04-24T05:53:18;9.50;99.90
666;DHT22;315;48.738;9.126;2023-04-24T05:55:44;9.60;99.90
666;DHT22;315;48.738;9.126;2023-04-24T05:58:10;9.60;99.90
666;DHT22;315;48.738;9.126;2023-04-24T06:00:35;9.70;99.90
666;DHT22;315;48.738;9.126;2023-04-24T06:03:01;9.70;99.90
666;DHT22;315;48.738;9.126;2023-04-24T06:05:29;9.70;99.90
666;DHT22;315;48.738;9.126;2023-04-24T06:07:55;9.70;99.90
666;DHT22;315;48.738;9.126;2023-04-24T06:10:20;9.80;99.90
666;DHT22;315;48.738;9.126;2023-04-24T06:12:46;9.80;99.90
666;DHT22;315;48.738;9.126;2023-04-24T06:15:11;9.80;99.90
666;DHT22;315;48.738;9.126;2023-04-24T06:17:38;9.90;99.90
666;DHT22;315;48.738;9.126;2023-04-24T06:20:04;9.90;99.90
666;DHT22;315;48.738;9.126;2023-04-24T06:22:30;10.20;99.90
666;DHT22;315;48.738;9.126;2023-04-24T06:24:56;10.50;99.90
666;DHT22;315;48.738;9.126;2023-04-24T06:27:22;10.80;99.90
666;DHT22;315;48.738;9.126;2023-04-24T06:29:47;11.20;99.90
666;DHT22;315;48.738;9.126;2023-04-24T06:32:20;11.40;99.90
666;DHT22;315;48.738;9.126;2023-04-24T06:34:46;11.70;99.90
666;DHT22;315;48.738;9.126;2023-04-24T06:37:11;12.00;99.90
666;DHT22;315;48.738;9.126;2023-04-24T06:39:37;12.30;99.90
666;DHT22;315;48.738;9.126;2023-04-24T06:42:02;12.70;99.90
666;DHT22;315;48.738;9.126;2023-04-24T06:44:28;12.80;99.90
666;DHT22;315;48.738;9.126;2023-04-24T06:46:53;12.90;99.90
666;DHT22;315;48.738;9.126;2023-04-24T06:49:19;13.00;99.90
666;DHT22;315;48.738;9.126;2023-04-24T06:51:45;13.10;99.90
666;DHT22;315;48.738;9.126;2023-04-24T06:54:10;13.30;99.90
666;DHT22;315;48.738;9.126;2023-04-24T06:56:36;13.40;99.90
666;DHT22;315;48.738;9.126;2023-04-24T06:59:02;13.60;99.90
666;DHT22;315;48.738;9.126;2023-04-24T07:01:27;13.70;99.90
666;DHT22;315;48.738;9.126;2023-04-24T07:03:53;13.60;99.90
666;DHT22;315;48.738;9.126;2023-04-24T07:06:18;13.50;99.90
666;DHT22;315;48.738;9.126;2023-04-24T07:08:46;13.50;99.90
666;DHT22;315;48.738;9.126;2023-04-24T07:11:12;13.60;99.90
666;DHT22;315;48.738;9.126;2023-04-24T07:13:38;13.60;99.90
666;DHT22;315;48.738;9.126;2023-04-24T07:16:07;13.50;99.90
666;DHT22;315;48.738;9.126;2023-04-24T07:18:33;13.20;99.90
666;DHT22;315;48.738;9.126;2023-04-24T07:20:59;12.60;99.90
666;DHT22;315;48.738;9.126;2023-04-24T07:23:24;12.10;99.90
666;DHT22;315;48.738;9.126;2023-04-24T07:25:50;11.80;99.90
666;DHT22;315;48.738;9.126;2023-04-24T07:28:15;11.70;99.90
666;DHT22;315;48.738;9.126;2023-04-24T07:30:43;11.60;99.90
666;DHT22;315;48.738;9.126;2023-04-24T07:33:08;11.70;99.90
666;DHT22;315;48.738;9.126;2023-04-24T07:35:36;11.70;99.90
666;DHT22;315;48.738;9.126;2023-04-24T07:38:02;11.80;99.90
666;DHT22;315;48.738;9.126;2023-04-24T07:40:27;12.20;99.90
666;DHT22;315;48.738;9.126;2023-04-24T07:42:53;12.70;99.90
666;DHT22;315;48.738;9.126;2023-04-24T07:45:18;13.30;99.90
666;DHT22;315;48.738;9.126;2023-04-24T07:47:44;13.70;99.90
666;DHT22;315;48.738;9.126;2023-04-24T07:50:11;13.70;99.90
666;DHT22;315;48.738;9.126;2023-04-24T07:52:37;13.60;99.90
666;DHT22;315;48.738;9.126;2023-04-24T07:55:02;13.30;99.90
666;DHT22;315;48.738;9.126;2023-04-24T07:57:28;12.90;99.90
666;DHT22;315;48.738;9.126;2023-04-24T07:59:54;12.90;99.90
666;DHT22;315;48.738;9.126;2023-04-24T08:02:20;13.00;99.90
666;DHT22;315;48.738;9.126;2023-04-24T08:04:52;13.00;99.90
666;DHT22;315;48.738;9.126;2023-04-24T08:07:18;13.00;99.90
666;DHT22;315;48.738;9.126;2023-04-24T08:09:43;12.80;99.90
666;DHT22;315;48.738;9.126;2023-04-24T08:12:09;12.60;99.90
666;DHT22;315;48.738;9.126;2023-04-24T08:14:35;12.40;99.90
666;DHT22;315;48.738;9.126;2023-04-24T08:17:00;12.20;99.90
666;DHT22;315;48.738;9.126;2023-04-24T08:19:26;12.20;99.90
666;DHT22;315;48.738;9.126;2023-04-24T08:21:52;12.30;99.90
666;DHT22;315;48.738;9.126;2023-04-24T08:24:17;12.50;99.90
666;DHT22;315;48.738;9.126;2023-04-24T08:26:43;12.70;99.90
666;DHT22;315;48.738;9.126;2023-04-24T08:29:08;13.10;99.90
666;DHT22;315;48.738;9.126;2023-04-24T08:31:34;13.50;99.90
666;DHT22;315;48.738;9.126;2023-04-24T08:34:00;13.90;99.90
666;DHT22;315;48.738;9.126;2023-04-24T08:36:26;14.20;99.90
666;DHT22;315;48.738;9.126;2023-04-24T08:38:52;14.30;99.90
666;DHT22;315;48.738;9.126;2023-04-24T08:41:18;14.50;99.90
666;DHT22;315;48.738;9.126;2023-04-24T08:43:46;14.80;99.90
666;DHT22;315;48.738;9.126;2023-04-24T08:46:13;15.10;99.90
666;DHT22;315;48.738;9.126;2023-04-24T08:48:39;15.00;99.90
666;DHT22;315;48.738;9.126;2023-04-24T08:51:07;14.80;99.90
666;DHT22;315;48.738;9.126;2023-04-24T08:53:33;14.70;99.90
666;DHT22;315;48.738;9.126;2023-04-24T08:56:01;15.20;99.90
666;DHT22;315;48.738;9.126;2023-04-24T08:58:27;15.30;99.90
666;DHT22;315;48.738;9.126;2023-04-24T09:00:56;15.10;99.90
666;DHT22;315;48.738;9.126;2023-04-24T09:03:22;14.80;99.90
666;DHT22;315;48.738;9.126;2023-04-24T09:05:49;15.00;99.90
666;DHT22;315;48.738;9.126;2023-04-24T09:08:17;15.00;99.90
666;DHT22;315;48.738;9.126;2023-04-24T09:10:43;15.20;99.90
666;DHT22;315;48.738;9.126;2023-04-24T09:13:09;15.20;99.90
666;DHT22;315;48.738;9.126;2023-04-24T09:15:39;14.90;99.90
666;DHT22;315;48.738;9.126;2023-04-24T09:18:05;14.50;99.90
666;DHT22;315;48.738;9.126;2023-04-24T09:20:31;14.50;99.90
666;DHT22;315;48.738;9.126;2023-04-24T09:22:57;14.20;99.90
666;DHT22;315;48.738;9.126;2023-04-24T09:25:31;14.00;99.90
666;DHT22;315;48.738;9.126;2023-04-24T09:28:04;13.90;99.90
666;DHT22;315;48.738;9.126;2023-04-24T09:30:29;14.00;99.90
666;DHT22;315;48.738;9.126;2023-04-24T09:33:16;14.60;99.90
666;DHT22;315;48.738;9.126;2023-04-24T09:35:42;15.80;99.90
666;DHT22;315;48.738;9.126;2023-04-24T09:38:10;16.50;99.90
666;DHT22;315;48.738;9.126;2023-04-24T09:40:36;16.60;97.30
666;DHT22;315;48.738;9.126;2023-04-24T09:43:02;16.40;99.40
666;DHT22;315;48.738;9.126;2023-04-24T09:45:31;16.60;96.90
666;DHT22;315;48.738;9.126;2023-04-24T09:48:00;16.40;96.80
666;DHT22;315;48.738;9.126;2023-04-24T09:50:25;16.20;96.20
666;DHT22;315;48.738;9.126;2023-04-24T09:53:03;15.60;96.30
666;DHT22;315;48.738;9.126;2023-04-24T09:55:29;14.90;98.40
666;DHT22;315;48.738;9.126;2023-04-24T09:57:59;14.50;98.20
666;DHT22;315;48.738;9.126;2023-04-24T10:00:30;14.50;98.80
666;DHT22;315;48.738;9.126;2023-04-24T10:03:03;14.20;98.30
666;DHT22;315;48.738;9.126;2023-04-24T10:05:34;14.00;99.90
666;DHT22;315;48.738;9.126;2023-04-24T10:08:03;13.90;99.90
666;DHT22;315;48.738;9.126;2023-04-24T10:10:30;15.00;99.80
666;DHT22;315;48.738;9.126;2023-04-24T10:12:56;16.80;96.80
666;DHT22;315;48.738;9.126;2023-04-24T10:15:22;18.20;92.70
666;DHT22;315;48.738;9.126;2023-04-24T10:17:49;19.00;86.20
666;DHT22;315;48.738;9.126;2023-04-24T10:20:29;19.20;79.60
666;DHT22;315;48.738;9.126;2023-04-24T10:22:56;18.90;77.80
666;DHT22;315;48.738;9.126;2023-04-24T10:25:24;19.90;76.20
666;DHT22;315;48.738;9.126;2023-04-24T10:27:51;20.10;72.70
666;DHT22;315;48.738;9.126;2023-04-24T10:30:18;19.80;69.50
666;DHT22;315;48.738;9.126;2023-04-24T10:32:44;19.30;72.20
666;DHT22;315;48.738;9.126;2023-04-24T10:35:12;19.80;71.60
666;DHT22;315;48.738;9.126;2023-04-24T10:37:48;19.00;69.40
666;DHT22;315;48.738;9.126;2023-04-24T10:40:27;17.90;73.80
666;DHT22;315;48.738;9.126;2023-04-24T10:42:56;18.10;76.60
666;DHT22;315;48.738;9.126;2023-04-24T10:45:23;17.50;76.60
666;DHT22;315;48.738;9.126;2023-04-24T10:48:08;17.10;76.90
666;DHT22;315;48.738;9.126;2023-04-24T10:50:47;16.20;81.90
666;DHT22;315;48.738;9.126;2023-04-24T10:53:17;15.80;85.20
666;DHT22;315;48.738;9.126;2023-04-24T10:55:57;15.80;88.00
666;DHT22;315;48.738;9.126;2023-04-24T10:58:24;15.10;90.50
666;DHT22;315;48.738;9.126;2023-04-24T11:00:58;14.50;92.50
666;DHT22;315;48.738;9.126;2023-04-24T11:03:26;14.30;93.60
666;DHT22;315;48.738;9.126;2023-04-24T11:06:06;14.10;95.00
666;DHT22;315;48.738;9.126;2023-04-24T11:08:42;13.80;96.60
666;DHT22;315;48.738;9.126;2023-04-24T11:22:13;13.10;99.90
666;DHT22;315;48.738;9.126;2023-04-24T11:27:20;13.50;99.90
666;DHT22;315;48.738;9.126;2023-04-24T11:37:42;16.20;91.10
666;DHT22;315;48.738;9.126;2023-04-24T11:40:10;16.10;92.10
666;DHT22;315;48.738;9.126;2023-04-24T11:42:41;15.30;93.10
666;DHT22;315;48.738;9.126;2023-04-24T11:45:09;14.30;95.80
666;DHT22;315;48.738;9.126;2023-04-24T11:47:35;13.70;99.90
666;DHT22;315;48.738;9.126;2023-04-24T11:50:02;13.60;99.90
666;DHT22;315;48.738;9.126;2023-04-24T11:52:30;13.70;99.90
666;DHT22;315;48.738;9.126;2023-04-24T11:54:55;13.70;99.90
666;DHT22;315;48.738;9.126;2023-04-24T11:57:25;13.80;99.90
666;DHT22;315;48.738;9.126;2023-04-24T11:59:54;14.30;99.80
666;DHT22;315;48.738;9.126;2023-04-24T12:02:23;14.70;99.00
666;DHT22;315;48.738;9.126;2023-04-24T12:04:49;15.60;95.10
666;DHT22;315;48.738;9.126;2023-04-24T12:07:15;15.30;95.10
666;DHT22;315;48.738;9.126;2023-04-24T12:09:44;15.10;96.80
666;DHT22;315;48.738;9.126;2023-04-24T12:12:12;14.80;96.50
666;DHT22;315;48.738;9.126;2023-04-24T12:14:47;14.30;98.40
666;DHT22;315;48.738;9.126;2023-04-24T12:17:13;13.90;99.90
666;DHT22;315;48.738;9.126;2023-04-24T12:19:47;13.60;99.90
666;DHT22;315;48.738;9.126;2023-04-24T12:22:13;13.30;99.90
666;DHT22;315;48.738;9.126;2023-04-24T12:25:02;13.30;99.90
666;DHT22;315;48.738;9.126;2023-04-24T12:27:30;13.30;99.90
666;DHT22;315;48.738;9.126;2023-04-24T12:29:58;13.40;99.90
666;DHT22;315;48.738;9.126;2023-04-24T12:32:24;13.70;99.90
666;DHT22;315;48.738;9.126;2023-04-24T12:34:51;13.70;99.90
666;DHT22;315;48.738;9.126;2023-04-24T12:37:17;13.60;99.90
666;DHT22;315;48.738;9.126;2023-04-24T12:40:04;13.70;99.40
666;DHT22;315;48.738;9.126;2023-04-24T12:42:33;13.90;99.90
666;DHT22;315;48.738;9.126;2023-04-24T12:45:02;13.90;99.90
666;DHT22;315;48.738;9.126;2023-04-24T12:47:28;14.00;99.70
666;DHT22;315;48.738;9.126;2023-04-24T12:49:54;14.00;99.90
666;DHT22;315;48.738;9.126;2023-04-24T12:52:22;13.70;99.90
666;DHT22;315;48.738;9.126;2023-04-24T12:54:49;13.50;99.90
666;DHT22;315;48.738;9.126;2023-04-24T12:57:14;13.10;99.90
666;DHT22;315;48.738;9.126;2023-04-24T12:59:40;12.90;99.90
666;DHT22;315;48.738;9.126;2023-04-24T13:02:06;12.70;99.90
666;DHT22;315;48.738;9.126;2023-04-24T13:04:32;12.60;99.90
666;DHT22;315;48.738;9.126;2023-04-24T13:06:58;12.60;99.90
666;DHT22;315;48.738;9.126;2023-04-24T13:09:23;12.70;99.90
666;DHT22;315;48.738;9.126;2023-04-24T13:11:49;12.60;99.90
666;DHT22;315;48.738;9.126;2023-04-24T13:14:15;12.20;99.90
666;DHT22;315;48.738;9.126;2023-04-24T13:16:41;11.90;99.90
666;DHT22;315;48.738;9.126;2023-04-24T13:19:06;11.70;99.90
666;DHT22;315;48.738;9.126;2023-04-24T13:21:32;11.90;99.90
666;DHT22;315;48.738;9.126;2023-04-24T13:23:57;12.20;99.90
666;DHT22;315;48.738;9.126;2023-04-24T13:26:23;13.00;99.90
666;DHT22;315;48.738;9.126;2023-04-24T13:28:48;14.90;99.90
666;DHT22;315;48.738;9.126;2023-04-24T13:31:14;15.60;99.90
666;DHT22;315;48.738;9.126;2023-04-24T13:33:39;15.20;99.90
666;DHT22;315;48.738;9.126;2023-04-24T13:36:05;14.50;99.90
666;DHT22;315;48.738;9.126;2023-04-24T13:38:31;13.90;99.90
666;DHT22;315;48.738;9.126;2023-04-24T13:40:57;13.50;99.90
666;DHT22;315;48.738;9.126;2023-04-24T13:43:22;12.90;99.90
666;DHT22;315;48.738;9.126;2023-04-24T13:45:48;12.70;99.90
666;DHT22;315;48.738;9.126;2023-04-24T13:48:14;12.50;99.90
666;DHT22;315;48.738;9.126;2023-04-24T13:50:41;12.00;99.90
666;DHT22;315;48.738;9.126;2023-04-24T13:53:07;11.50;99.90
666;DHT22;315;48.738;9.126;2023-04-24T13:55:32;11.10;99.90
666;DHT22;315;48.738;9.126;2023-04-24T13:57:58;11.00;99.90
666;DHT22;315;48.738;9.126;2023-04-24T14:00:23;11.20;99.90
666;DHT22;315;48.738;9.126;2023-04-24T14:02:49;11.50;99.90
666;DHT22;315;48.738;9.126;2023-04-24T14:05:15;12.00;99.90
666;DHT22;315;48.738;9.126;2023-04-24T14:07:41;12.40;99.90
666;DHT22;315;48.738;9.126;2023-04-24T14:10:07;12.40;99.90
666;DHT22;315;48.738;9.126;2023-04-24T14:12:33;12.40;99.90
666;DHT22;315;48.738;9.126;2023-04-24T14:14:59;12.00;99.90
666;DHT22;315;48.738;9.126;2023-04-24T14:17:24;11.60;99.90
666;DHT22;315;48.738;9.126;2023-04-24T14:19:50;11.30;99.90
666;DHT22;315;48.738;9.126;2023-04-24T14:22:17;11.00;99.90
666;DHT22;315;48.738;9.126;2023-04-24T14:24:42;10.90;99.90
666;DHT22;315;48.738;9.126;2023-04-24T14:27:08;10.70;99.90
666;DHT22;315;48.738;9.126;2023-04-24T14:29:35;10.40;99.90
666;DHT22;315;48.738;9.126;2023-04-24T14:32:00;10.20;99.90
666;DHT22;315;48.738;9.126;2023-04-24T14:34:26;10.50;99.90
666;DHT22;315;48.738;9.126;2023-04-24T14:36:52;10.90;99.90
666;DHT22;315;48.738;9.126;2023-04-24T14:39:17;11.00;99.90
666;DHT22;315;48.738;9.126;2023-04-24T14:41:43;11.20;99.90
666;DHT22;315;48.738;9.126;2023-04-24T14:44:09;11.20;99.90
666;DHT22;315;48.738;9.126;2023-04-24T14:46:34;11.30;99.90
666;DHT22;315;48.738;9.126;2023-04-24T14:49:00;11.30;99.90
666;DHT22;315;48.738;9.126;2023-04-24T14:51:25;11.40;99.90
666;DHT22;315;48.738;9.126;2023-04-24T14:53:52;11.40;99.90
666;DHT22;315;48.738;9.126;2023-04-24T14:56:18;11.50;99.90
666;DHT22;315;48.738;9.126;2023-04-24T14:58:43;11.70;99.90
666;DHT22;315;48.738;9.126;2023-04-24T15:01:09;12.10;99.90
666;DHT22;315;48.738;9.126;2023-04-24T15:03:34;12.30;99.90
666;DHT22;315;48.738;9.126;2023-04-24T15:06:00;12.30;99.90
666;DHT22;315;48.738;9.126;2023-04-24T15:08:26;12.30;99.90
666;DHT22;315;48.738;9.126;2023-04-24T15:10:51;12.30;99.90
666;DHT22;315;48.738;9.126;2023-04-24T15:13:17;12.30;99.90
666;DHT22;315;48.738;9.126;2023-04-24T15:15:45;12.30;99.90
666;DHT22;315;48.738;9.126;2023-04-24T15:18:11;12.30;99.90
666;DHT22;315;48.738;9.126;2023-04-24T15:20:37;12.30;99.90
666;DHT22;315;48.738;9.126;2023-04-24T15:23:08;12.20;99.90
666;DHT22;315;48.738;9.126;2023-04-24T15:25:34;12.10;99.90
666;DHT22;315;48.738;9.126;2023-04-24T15:27:59;12.00;99.90
666;DHT22;315;48.738;9.126;2023-04-24T15:30:26;11.90;99.90
666;DHT22;315;48.738;9.126;2023-04-24T15:32:51;11.70;99.90
666;DHT22;315;48.738;9.126;2023-04-24T15:35:17;11.60;99.90
666;DHT22;315;48.738;9.126;2023-04-24T15:37:43;11.50;99.90
666;DHT22;315;48.738;9.126;2023-04-24T15:40:09;11.40;99.90
666;DHT22;315;48.738;9.126;2023-04-24T15:42:36;11.10;99.90
666;DHT22;315;48.738;9.126;2023-04-24T15:45:02;11.00;99.90
666;DHT22;315;48.738;9.126;2023-04-24T15:47:29;10.90;99.90
666;DHT22;315;48.738;9.126;2023-04-24T15:49:54;10.90;99.90
666;DHT22;315;48.738;9.126;2023-04-24T15:52:20;11.00;99.90
666;DHT22;315;48.738;9.126;2023-04-24T15:54:46;11.10;99.90
666;DHT22;315;48.738;9.126;2023-04-24T15:57:12;11.20;99.90
666;DHT22;315;48.738;9.126;2023-04-24T15:59:38;11.10;99.90
666;DHT22;315;48.738;9.126;2023-04-24T16:02:03;11.10;99.90
666;DHT22;315;48.738;9.126;2023-04-24T16:04:29;11.20;99.90
666;DHT22;315;48.738;9.126;2023-04-24T16:06:55;11.30;99.90
666;DHT22;315;48.738;9.126;2023-04-24T16:09:22;11.40;99.90
666;DHT22;315;48.738;9.126;2023-04-24T16:11:47;11.40;99.90
666;DHT22;315;48.738;9.126;2023-04-24T16:14:13;11.30;99.90
666;DHT22;315;48.738;9.126;2023-04-24T16:16:38;11.20;99.90
666;DHT22;315;48.738;9.126;2023-04-24T16:19:04;11.20;99.90
666;DHT22;315;48.738;9.126;2023-04-24T16:21:31;11.30;99.90
666;DHT22;315;48.738;9.126;2023-04-24T16:23:56;11.30;99.90
666;DHT22;315;48.738;9.126;2023-04-24T16:26:22;11.30;99.90
666;DHT22;315;48.738;9.126;2023-04-24T16:28:47;11.40;99.90
666;DHT22;315;48.738;9.126;2023-04-24T16:31:13;11.50;99.90
666;DHT22;315;48.738;9.126;2023-04-24T16:33:38;11.60;99.90
666;DHT22;315;48.738;9.126;2023-04-24T16:36:04;11.70;99.90
666;DHT22;315;48.738;9.126;2023-04-24T16:38:30;11.80;99.90
666;DHT22;315;48.738;9.126;2023-04-24T16:40:56;11.80;99.90
666;DHT22;315;48.738;9.126;2023-04-24T16:43:21;11.80;99.90
666;DHT22;315;48.738;9.126;2023-04-24T16:45:47;11.90;99.90
666;DHT22;315;48.738;9.126;2023-04-24T16:48:12;11.80;99.90
666;DHT22;315;48.738;9.126;2023-04-24T16:50:38;11.80;99.90
666;DHT22;315;48.738;9.126;2023-04-24T16:53:03;11.70;99.90